Central City, PA (15926)

7:47 PM EDT on June 24, 2017 (GMT -0400)
SHADE | | Change Station

Elev 2195 ft 40.12 °N, 78.81 °W | Updated 7 seconds ago

Partly Cloudy
Partly Cloudy
70.5 °F
Feels Like 76 °F
N
0.0
Wind Variable Wind from ESE

Today
High -- | Low -- °F
--% Chance of Precip.
Yesterday
High -- | Low -- °F
Precip. -- in
Pressure 29.92 in
Visibility 10.0 miles
Clouds Few 5000 ft
Scattered Clouds 6000 ft
Heat Index 76 °F
Dew Point 56 °F
Humidity 61%
Rainfall 0.00 in
Snow Depth Not available.
5:47 AM 8:48 PM
New Moon, 1% visible
METAR KJST 242254Z AUTO 28012G21KT 10SM FEW050 SCT060 23/12 A2996 RMK AO2 SLP132 T02280122
Pressure 29.92 in
Visibility 10.0 miles
Clouds Few 5000 ft
Scattered Clouds 6000 ft
Heat Index 76 °F
Dew Point 56 °F
Humidity 61%
Rainfall 0.00 in
Snow Depth Not available.
5:47 AM 8:48 PM
New Moon, 1% visible
METAR KJST 242254Z AUTO 28012G21KT 10SM FEW050 SCT060 23/12 A2996 RMK AO2 SLP132 T02280122

Get Severe Weather Alerts

Thanks for signing up!

Be on the lookout for a verification email in your inbox.

You'll start receiving the daily forecast at 6 AM.

×

10-Day Weather Forecast

Almanac

Astronomy

Jun. 24, 2017 Rise Set
Actual Time
Civil Twilight
Nautical Twilight
Astronomical Twilight
Moon
Length of Visible Light
Length of Day
Tomorrow will be .
, % of the Moon is Illuminated

Today's Extremes

State Highs State Lows

Community

WunderPhotos

Category 6

Welcome to Category 6. This is the collective home for Weather Underground's featured writeups by Dr. Jeff Masters (right), Bob Henson (left), Chris Burt, and other regular contributors.

Nearby

Air Quality

  Air Quality AQ Index Pollutant
Not available.

Snow Depth

Station Depth Elevation

Earthquake Activity

City Distance Mag. Time & Date
Minimum magnitude displayed is 2.5.

Coastal Water Temperatures

Place Temperature

Stations

Nearby Weather Stations

Station Location Temp. Windchill Dew Point Humidity Wind Precip. Elev Updated Type
                   

Watches & Warnings

There are currently no watches in effect.